Terminal Aerodrome Forecast
Issued by NWS La Crosse, WI

Home | Current Version | Previous Version | Text Only | Print | Product List | Glossary On
Versions: 1 2 3 4 5 6 7 8 9 10 11 12 13 14 15 16 17 18 19 20 21 22 23 24 25 26 27 28 29 30 31 32 33 34 35 36 37 38 39 40 41 42 43 44 45 46 47 48 49 50
000
FTUS43 KARX 222011 AAA
TAFLSE
TAF AMD
KLSE 222011Z 2220/2318 12008KT 6SM -RA BR OVC015
     FM222300 10008KT 5SM -RA BR OVC012
     FM230200 08008KT 4SM -RA BR OVC008
     FM231000 03009KT 4SM -RASN BR OVC008
     FM231300 02006KT 2SM -SN OVC006=

USA.gov is the U.S. government's official web portal to all federal, state and local government web resources and services.